createdAt,value
2023-01-09T04:57:48.140Z,42.88
2023-01-09T04:59:54.225Z,45.30
2023-01-09T05:01:59.888Z,45.92
2023-01-09T05:04:04.900Z,45.60
2023-01-09T05:06:08.399Z,44.55
2023-01-09T07:09:52.460Z,46.75
2023-01-09T07:11:57.482Z,48.78
2023-01-09T07:14:01.983Z,48.67
2023-01-09T07:16:07.678Z,47.55
2023-01-09T07:18:12.863Z,50.45
2023-01-09T07:20:18.082Z,46.40
2023-01-09T07:22:22.200Z,47.15
2023-01-09T07:24:26.760Z,48.30
2023-01-09T07:26:31.131Z,49.70
2023-01-09T07:28:36.361Z,46.28
2023-01-09T07:30:40.869Z,48.08
2023-01-09T07:32:44.793Z,47.55
2023-01-09T07:34:49.430Z,48.78
2023-01-09T07:36:53.999Z,48.38
2023-01-09T07:38:58.419Z,47.80
2023-01-09T07:41:01.701Z,46.88
2023-01-09T07:43:06.700Z,49.60
2023-01-09T07:45:11.152Z,47.65
2023-01-09T07:47:15.686Z,44.50
2023-01-09T07:49:19.495Z,46.45
2023-01-09T07:51:23.411Z,46.33
2023-01-09T07:53:27.220Z,47.30
2023-01-09T07:55:32.276Z,44.53
2023-01-09T07:57:36.083Z,44.88
2023-01-09T07:59:41.028Z,46.83
2023-01-09T08:01:44.933Z,45.13
2023-01-09T08:03:49.531Z,46.00
2023-01-09T08:05:53.821Z,43.78
2023-01-09T08:07:57.751Z,47.22
2023-01-09T08:10:02.181Z,44.80
2023-01-09T08:12:07.231Z,44.63
2023-01-09T08:14:11.020Z,47.13
2023-01-09T08:16:14.820Z,46.35
2023-01-09T08:18:18.652Z,45.05
2023-01-09T08:20:23.375Z,48.45
2023-01-09T08:22:28.305Z,44.55
2023-01-09T08:24:34.072Z,43.88
2023-01-09T08:26:38.340Z,46.97
2023-01-09T08:28:42.172Z,45.83
2023-01-09T08:30:47.329Z,46.80
2023-01-09T08:32:53.676Z,44.88
2023-01-09T08:34:58.090Z,41.72
2023-01-09T08:37:03.138Z,49.00
2023-01-09T08:39:07.578Z,48.70
2023-01-09T08:41:31.001Z,47.55
2023-01-09T08:43:58.501Z,45.60
2023-01-09T08:46:24.156Z,50.08
2023-01-09T08:48:28.582Z,44.38
2023-01-09T08:50:32.412Z,45.58
2023-01-09T08:52:36.200Z,42.60
2023-01-09T08:54:42.331Z,47.22
2023-01-09T08:56:46.840Z,47.28
2023-01-09T08:58:50.593Z,45.78
2023-01-09T09:00:54.440Z,46.15
2023-01-09T09:03:00.462Z,45.90
2023-01-09T09:05:05.680Z,47.53
2023-01-09T09:07:09.758Z,46.03
2023-01-09T09:09:15.016Z,51.30
2023-01-09T09:11:19.981Z,49.45
2023-01-09T09:13:24.951Z,50.15
2023-01-09T09:15:29.979Z,50.03
2023-01-09T09:17:35.671Z,47.80
2023-01-09T09:19:41.494Z,47.42
2023-01-09T09:21:46.161Z,49.03
2023-01-09T09:23:51.221Z,51.42
2023-01-09T09:25:54.855Z,48.78
2023-01-09T09:27:58.780Z,52.50
2023-01-09T09:30:02.170Z,53.00
2023-01-09T09:32:06.761Z,50.13
2023-01-09T09:34:12.282Z,51.22
2023-01-09T09:36:17.282Z,48.75
2023-01-09T09:38:21.035Z,51.25
2023-01-09T09:40:38.011Z,48.80
2023-01-09T09:43:05.312Z,50.45
2023-01-09T09:45:27.923Z,47.95
2023-01-09T09:49:49.403Z,47.70
2023-01-09T09:52:39.580Z,49.30
2023-01-09T09:54:51.291Z,46.90
2023-01-09T09:57:05.040Z,56.90
2023-01-09T09:59:28.503Z,48.88
2023-01-09T10:01:44.940Z,55.90
2023-01-09T10:04:02.087Z,54.60
2023-01-09T10:06:26.101Z,56.17
2023-01-09T10:08:46.639Z,59.47
2023-01-09T10:10:56.021Z,55.67
2023-01-09T10:13:03.153Z,58.85
2023-01-09T10:15:29.942Z,58.20
2023-01-09T10:17:59.541Z,55.67
2023-01-09T10:20:26.363Z,57.03
2023-01-09T10:22:42.281Z,58.05
2023-01-09T10:24:49.756Z,58.78
2023-01-09T10:26:56.892Z,58.90
2023-01-09T10:29:03.411Z,59.10
2023-01-09T10:31:35.578Z,57.08
2023-01-09T10:33:51.664Z,57.90
2023-01-09T10:36:19.119Z,56.10
2023-01-09T10:38:36.225Z,58.00
2023-01-09T10:40:53.760Z,60.25
2023-01-09T10:43:23.072Z,59.85
2023-01-09T10:45:33.090Z,56.65
2023-01-09T10:47:41.201Z,58.70
2023-01-09T10:49:46.477Z,58.10
2023-01-09T10:52:18.978Z,56.25
2023-01-09T10:54:25.805Z,54.63
2023-01-09T10:56:34.120Z,55.35
2023-01-09T10:58:38.859Z,58.83
2023-01-09T17:15:44.642Z,78.05
2023-01-09T17:17:49.774Z,86.15
2023-01-09T17:19:54.818Z,84.40
2023-01-09T17:21:59.192Z,81.05
2023-01-09T17:24:22.364Z,76.28
2023-01-09T17:26:46.625Z,71.65
2023-01-09T17:28:56.427Z,72.90
2023-01-09T17:31:07.733Z,70.88
2023-01-09T17:33:19.635Z,78.10
2023-01-09T17:35:24.669Z,74.85
2023-01-09T17:37:29.733Z,69.35
2023-01-09T17:39:33.962Z,70.97
2023-01-09T17:41:38.893Z,73.57
2023-01-09T17:43:46.655Z,75.35
2023-01-09T17:45:50.604Z,73.55
2023-01-09T17:47:54.474Z,76.35
2023-01-09T17:49:58.794Z,75.05
2023-01-09T17:52:03.283Z,73.88
2023-01-09T17:54:07.184Z,77.53
2023-01-09T17:56:22.645Z,72.28
2023-01-09T17:58:31.215Z,76.72
2023-01-09T18:00:38.935Z,73.97
2023-01-09T18:02:43.269Z,75.07
2023-01-09T18:04:48.062Z,71.10
2023-01-09T18:06:52.292Z,75.15
2023-01-09T18:08:58.204Z,75.70
2023-01-09T18:11:10.880Z,74.00
2023-01-09T18:15:19.455Z,77.47
2023-01-09T18:17:24.833Z,85.25
2023-01-09T18:19:29.182Z,109.57
2023-01-09T18:21:34.011Z,90.25
2023-01-09T18:23:40.114Z,70.38
2023-01-09T18:25:46.070Z,74.22
2023-01-09T18:27:50.394Z,72.88
2023-01-09T18:29:54.279Z,73.15
2023-01-09T18:31:58.102Z,71.18
2023-01-09T18:34:06.051Z,75.68
2023-01-09T18:36:11.709Z,78.05
2023-01-09T18:38:16.709Z,77.75
2023-01-09T18:40:21.082Z,74.57
2023-01-09T18:42:26.082Z,76.43
2023-01-09T18:44:30.329Z,68.57
2023-01-09T18:46:34.832Z,72.60
2023-01-09T18:48:39.142Z,83.90
2023-01-09T18:50:44.101Z,85.60
2023-01-09T18:52:48.463Z,91.80
2023-01-09T18:54:53.225Z,83.43
2023-01-09T18:56:57.678Z,80.43
2023-01-09T18:59:02.703Z,74.97
2023-01-09T19:01:06.723Z,68.03
2023-01-09T19:03:10.455Z,63.30
2023-01-09T19:05:15.424Z,67.95
2023-01-09T19:07:18.929Z,68.32
2023-01-09T19:09:23.032Z,69.38
2023-01-09T19:11:27.083Z,70.60
2023-01-09T19:13:32.943Z,68.28
2023-01-09T19:15:37.953Z,67.05
2023-01-09T19:17:42.488Z,75.30
2023-01-09T19:19:46.667Z,77.07
2023-01-09T19:21:50.983Z,72.72
2023-01-09T19:23:56.295Z,72.47
2023-01-09T19:26:06.813Z,70.82
2023-01-09T19:28:11.334Z,76.40
2023-01-09T19:30:15.253Z,80.90
2023-01-09T19:32:19.476Z,80.95
2023-01-09T19:34:23.814Z,84.82
2023-01-09T19:36:29.243Z,87.95
2023-01-09T19:38:33.594Z,84.38
2023-01-09T19:40:38.207Z,85.07
2023-01-09T19:42:42.044Z,80.50
2023-01-09T19:44:46.432Z,82.47
2023-01-09T19:46:50.783Z,79.65
2023-01-09T19:48:55.043Z,76.57
2023-01-09T19:51:06.355Z,73.00
2023-01-09T19:53:10.763Z,70.45
2023-01-09T19:55:15.999Z,67.72
2023-01-09T19:57:20.692Z,67.15
2023-01-09T19:59:25.118Z,72.22
2023-01-09T20:01:31.716Z,66.05
2023-01-09T20:03:36.136Z,72.15
2023-01-09T20:05:39.985Z,66.97
2023-01-09T20:07:44.992Z,69.05
2023-01-09T20:09:50.213Z,74.90
2023-01-09T20:11:55.135Z,72.78
2023-01-09T20:14:00.305Z,76.00
2023-01-09T20:16:06.372Z,70.38
2023-01-09T20:18:10.694Z,79.97
2023-01-09T20:20:15.323Z,71.50
2023-01-09T20:22:19.023Z,76.22
2023-01-09T20:24:23.999Z,76.75
2023-01-09T20:26:28.842Z,73.65
2023-01-09T20:28:33.798Z,74.22
2023-01-09T20:30:42.062Z,74.53
2023-01-09T20:32:49.666Z,74.15
2023-01-09T20:34:53.522Z,76.75
2023-01-09T20:36:57.875Z,74.68
2023-01-09T20:39:03.832Z,79.53
2023-01-09T20:41:34.437Z,78.07
2023-01-09T20:43:40.627Z,82.07
2023-01-09T20:45:46.950Z,79.32
2023-01-09T20:47:53.383Z,81.60
2023-01-09T20:49:57.713Z,78.57
2023-01-09T20:52:02.675Z,74.90
2023-01-09T20:54:07.172Z,75.35
2023-01-09T20:56:12.663Z,73.72
2023-01-09T20:58:16.412Z,74.78
2023-01-09T21:00:20.475Z,75.22
2023-01-09T21:02:24.511Z,75.65
2023-01-09T21:04:28.556Z,75.75
2023-01-09T21:06:32.698Z,74.70
2023-01-09T21:08:37.399Z,70.40
2023-01-09T21:10:41.743Z,68.07
2023-01-09T21:12:46.784Z,67.45
2023-01-09T21:14:51.264Z,65.22
2023-01-09T21:16:55.801Z,64.93
2023-01-09T21:19:00.163Z,60.70
2023-01-09T21:21:15.553Z,55.90
2023-01-09T21:23:20.174Z,56.88
2023-01-09T21:25:24.613Z,54.33
2023-01-09T21:27:32.643Z,53.03
2023-01-09T21:29:36.812Z,51.95
2023-01-09T21:31:40.595Z,51.45
2023-01-09T21:33:44.303Z,49.25
2023-01-09T21:36:02.665Z,50.92
2023-01-09T21:38:06.984Z,49.17
2023-01-09T21:40:21.935Z,51.80
2023-01-09T21:42:44.213Z,52.20
2023-01-09T21:45:06.498Z,51.38
2023-01-09T21:47:11.147Z,51.63
2023-01-09T21:49:15.532Z,54.65
2023-01-09T21:51:24.963Z,52.53
2023-01-09T21:53:29.630Z,52.22
2023-01-09T21:55:35.942Z,55.38
2023-01-09T21:57:40.583Z,53.63
2023-01-09T21:59:45.793Z,55.88
2023-01-09T22:01:53.724Z,56.08
2023-01-09T22:04:00.848Z,54.10
2023-01-09T22:06:08.852Z,52.78
2023-01-09T22:08:12.563Z,54.13
2023-01-09T22:10:16.946Z,53.50
2023-01-09T22:12:21.247Z,53.03
2023-01-09T22:14:25.333Z,54.90
2023-01-09T22:16:29.670Z,52.38
2023-01-09T22:18:34.421Z,49.05
2023-01-09T22:20:39.537Z,48.97
2023-01-09T22:22:44.504Z,48.63
2023-01-09T22:24:48.563Z,49.13
2023-01-09T22:26:53.515Z,48.05
2023-01-09T22:29:10.381Z,47.00
2023-01-09T22:31:22.063Z,48.03
2023-01-09T22:33:26.105Z,46.85
2023-01-09T22:35:29.602Z,46.33
2023-01-09T22:37:33.676Z,42.38
2023-01-09T22:39:40.176Z,48.20
2023-01-09T22:41:45.105Z,46.50
2023-01-09T22:43:50.114Z,43.13
